sensor_id;sensor_type;location;lat;lon;timestamp;pressure;altitude;pressure_sealevel;temperature;humidity
15604;BME280;7902;49.042;9.092;2023-03-15T00:02:06;98733.91;;;8.16;60.46
15604;BME280;7902;49.042;9.092;2023-03-15T00:04:32;98739.97;;;8.16;60.59
15604;BME280;7902;49.042;9.092;2023-03-15T00:06:58;98747.94;;;8.27;61.06
15604;BME280;7902;49.042;9.092;2023-03-15T00:09:24;98751.06;;;8.20;60.57
15604;BME280;7902;49.042;9.092;2023-03-15T00:11:51;98761.41;;;8.21;60.56
15604;BME280;7902;49.042;9.092;2023-03-15T00:14:19;98764.88;;;8.09;60.75
15604;BME280;7902;49.042;9.092;2023-03-15T00:16:45;98768.31;;;7.97;61.21
15604;BME280;7902;49.042;9.092;2023-03-15T00:19:12;98770.13;;;8.09;60.76
15604;BME280;7902;49.042;9.092;2023-03-15T00:21:38;98767.19;;;8.14;60.57
15604;BME280;7902;49.042;9.092;2023-03-15T00:24:10;98777.59;;;8.01;60.77
15604;BME280;7902;49.042;9.092;2023-03-15T00:26:37;98772.28;;;8.15;60.92
15604;BME280;7902;49.042;9.092;2023-03-15T00:29:04;98770.72;;;8.25;60.67
15604;BME280;7902;49.042;9.092;2023-03-15T00:31:30;98778.34;;;8.03;61.21
15604;BME280;7902;49.042;9.092;2023-03-15T00:33:56;98780.13;;;8.15;61.09
15604;BME280;7902;49.042;9.092;2023-03-15T00:36:23;98778.44;;;7.89;61.25
15604;BME280;7902;49.042;9.092;2023-03-15T00:38:51;98784.91;;;7.96;61.01
15604;BME280;7902;49.042;9.092;2023-03-15T00:41:19;98785.13;;;7.93;61.19
15604;BME280;7902;49.042;9.092;2023-03-15T00:43:45;98784.22;;;7.94;61.55
15604;BME280;7902;49.042;9.092;2023-03-15T00:46:12;98792.03;;;7.81;61.00
15604;BME280;7902;49.042;9.092;2023-03-15T00:48:38;98796.97;;;7.99;61.13
15604;BME280;7902;49.042;9.092;2023-03-15T00:51:16;98801.75;;;7.79;61.38
15604;BME280;7902;49.042;9.092;2023-03-15T00:53:44;98798.44;;;7.90;61.13
15604;BME280;7902;49.042;9.092;2023-03-15T00:56:12;98802.91;;;7.88;60.86
15604;BME280;7902;49.042;9.092;2023-03-15T00:58:39;98803.97;;;7.98;61.20
15604;BME280;7902;49.042;9.092;2023-03-15T01:01:13;98808.34;;;7.98;60.88
15604;BME280;7902;49.042;9.092;2023-03-15T01:03:41;98809.81;;;7.89;60.81
15604;BME280;7902;49.042;9.092;2023-03-15T01:06:12;98810.44;;;7.92;61.16
15604;BME280;7902;49.042;9.092;2023-03-15T01:08:39;98811.19;;;7.68;61.32
15604;BME280;7902;49.042;9.092;2023-03-15T01:11:08;98827.34;;;7.74;61.39
15604;BME280;7902;49.042;9.092;2023-03-15T01:13:34;98819.50;;;7.87;60.94
15604;BME280;7902;49.042;9.092;2023-03-15T01:16:01;98825.50;;;7.89;60.93
15604;BME280;7902;49.042;9.092;2023-03-15T01:18:27;98823.31;;;7.96;60.76
15604;BME280;7902;49.042;9.092;2023-03-15T01:20:53;98827.59;;;7.97;60.95
15604;BME280;7902;49.042;9.092;2023-03-15T01:23:19;98833.13;;;7.92;60.49
15604;BME280;7902;49.042;9.092;2023-03-15T01:25:45;98846.94;;;7.94;60.54
15604;BME280;7902;49.042;9.092;2023-03-15T01:28:11;98837.22;;;7.96;60.18
15604;BME280;7902;49.042;9.092;2023-03-15T01:30:37;98839.44;;;8.02;60.71
15604;BME280;7902;49.042;9.092;2023-03-15T01:33:04;98849.41;;;8.10;60.62
15604;BME280;7902;49.042;9.092;2023-03-15T01:35:30;98847.59;;;8.10;59.78
15604;BME280;7902;49.042;9.092;2023-03-15T01:37:56;98859.56;;;8.14;60.03
15604;BME280;7902;49.042;9.092;2023-03-15T01:40:22;98849.31;;;7.84;60.34
15604;BME280;7902;49.042;9.092;2023-03-15T01:43:15;98855.06;;;7.77;60.59
15604;BME280;7902;49.042;9.092;2023-03-15T01:48:46;98862.16;;;7.75;60.19
15604;BME280;7902;49.042;9.092;2023-03-15T01:54:11;98862.84;;;7.64;60.10
15604;BME280;7902;49.042;9.092;2023-03-15T01:56:41;98872.41;;;7.78;60.36
15604;BME280;7902;49.042;9.092;2023-03-15T01:59:17;98861.44;;;7.59;60.42
15604;BME280;7902;49.042;9.092;2023-03-15T02:01:48;98868.91;;;7.65;60.04
15604;BME280;7902;49.042;9.092;2023-03-15T02:04:21;98872.31;;;7.79;60.36
15604;BME280;7902;49.042;9.092;2023-03-15T02:06:51;98874.34;;;7.62;60.24
15604;BME280;7902;49.042;9.092;2023-03-15T02:09:29;98876.94;;;7.62;59.62
15604;BME280;7902;49.042;9.092;2023-03-15T02:11:57;98873.19;;;7.66;59.91
15604;BME280;7902;49.042;9.092;2023-03-15T02:14:23;98876.91;;;7.76;59.54
15604;BME280;7902;49.042;9.092;2023-03-15T02:16:50;98877.50;;;7.67;59.67
15604;BME280;7902;49.042;9.092;2023-03-15T02:20:02;98879.34;;;7.65;59.79
15604;BME280;7902;49.042;9.092;2023-03-15T02:22:57;98872.28;;;7.67;60.31
15604;BME280;7902;49.042;9.092;2023-03-15T02:27:58;98875.91;;;7.64;59.57
15604;BME280;7902;49.042;9.092;2023-03-15T02:30:23;98878.44;;;7.66;60.15
15604;BME280;7902;49.042;9.092;2023-03-15T02:32:49;98879.34;;;7.65;59.55
15604;BME280;7902;49.042;9.092;2023-03-15T02:35:26;98883.09;;;7.61;59.58
15604;BME280;7902;49.042;9.092;2023-03-15T02:37:53;98895.81;;;7.53;59.99
15604;BME280;7902;49.042;9.092;2023-03-15T02:40:21;98902.81;;;7.52;59.87
15604;BME280;7902;49.042;9.092;2023-03-15T02:42:51;98915.03;;;7.52;60.14
15604;BME280;7902;49.042;9.092;2023-03-15T02:45:18;98916.06;;;7.49;59.60
15604;BME280;7902;49.042;9.092;2023-03-15T02:47:45;98927.25;;;7.51;59.51
15604;BME280;7902;49.042;9.092;2023-03-15T02:50:12;98942.00;;;7.52;59.84
15604;BME280;7902;49.042;9.092;2023-03-15T02:52:38;98941.09;;;7.53;59.62
15604;BME280;7902;49.042;9.092;2023-03-15T02:55:05;98939.69;;;7.47;60.25
15604;BME280;7902;49.042;9.092;2023-03-15T02:57:31;98953.66;;;7.46;59.55
15604;BME280;7902;49.042;9.092;2023-03-15T02:59:56;98960.75;;;7.44;59.43
15604;BME280;7902;49.042;9.092;2023-03-15T03:02:24;98953.19;;;7.40;59.69
15604;BME280;7902;49.042;9.092;2023-03-15T03:04:49;98974.09;;;7.40;59.92
15604;BME280;7902;49.042;9.092;2023-03-15T03:07:18;98970.84;;;7.50;60.10
15604;BME280;7902;49.042;9.092;2023-03-15T03:09:44;98970.47;;;7.42;59.66
15604;BME280;7902;49.042;9.092;2023-03-15T03:12:10;98975.13;;;7.37;59.97
15604;BME280;7902;49.042;9.092;2023-03-15T03:14:36;98979.25;;;7.41;59.61
15604;BME280;7902;49.042;9.092;2023-03-15T03:17:02;98977.13;;;7.34;59.83
15604;BME280;7902;49.042;9.092;2023-03-15T03:19:27;98986.44;;;7.38;60.00
15604;BME280;7902;49.042;9.092;2023-03-15T03:21:53;98976.63;;;7.41;59.70
15604;BME280;7902;49.042;9.092;2023-03-15T03:24:19;98983.25;;;7.33;59.84
15604;BME280;7902;49.042;9.092;2023-03-15T03:26:46;98996.03;;;7.37;59.62
15604;BME280;7902;49.042;9.092;2023-03-15T03:29:12;98997.88;;;7.35;60.09
15604;BME280;7902;49.042;9.092;2023-03-15T03:31:41;99001.81;;;7.14;59.67
15604;BME280;7902;49.042;9.092;2023-03-15T03:34:08;99012.91;;;7.18;59.91
15604;BME280;7902;49.042;9.092;2023-03-15T03:36:35;99004.59;;;7.11;60.17
15604;BME280;7902;49.042;9.092;2023-03-15T03:39:02;99016.25;;;7.05;59.96
15604;BME280;7902;49.042;9.092;2023-03-15T03:41:28;99013.56;;;7.21;60.02
15604;BME280;7902;49.042;9.092;2023-03-15T03:43:53;99017.00;;;7.07;60.21
15604;BME280;7902;49.042;9.092;2023-03-15T03:46:19;99017.91;;;7.06;60.12
15604;BME280;7902;49.042;9.092;2023-03-15T03:48:45;99023.44;;;7.16;60.36
15604;BME280;7902;49.042;9.092;2023-03-15T03:51:11;99028.56;;;7.03;60.37
15604;BME280;7902;49.042;9.092;2023-03-15T03:53:37;99028.19;;;6.95;60.89
15604;BME280;7902;49.042;9.092;2023-03-15T03:56:07;99034.53;;;7.05;60.79
15604;BME280;7902;49.042;9.092;2023-03-15T03:58:33;99028.59;;;6.88;60.32
15604;BME280;7902;49.042;9.092;2023-03-15T04:00:59;99037.19;;;6.90;60.32
15604;BME280;7902;49.042;9.092;2023-03-15T04:03:25;99038.16;;;7.03;60.32
15604;BME280;7902;49.042;9.092;2023-03-15T04:05:57;99035.66;;;7.01;60.44
15604;BME280;7902;49.042;9.092;2023-03-15T04:08:24;99038.78;;;6.92;60.14
15604;BME280;7902;49.042;9.092;2023-03-15T04:10:51;99044.09;;;6.91;60.70
15604;BME280;7902;49.042;9.092;2023-03-15T04:13:19;99042.22;;;6.93;59.94
15604;BME280;7902;49.042;9.092;2023-03-15T04:15:46;99043.81;;;6.81;60.14
15604;BME280;7902;49.042;9.092;2023-03-15T04:18:12;99054.50;;;6.77;61.11
15604;BME280;7902;49.042;9.092;2023-03-15T04:20:38;99064.94;;;6.77;60.67
15604;BME280;7902;49.042;9.092;2023-03-15T04:23:12;99069.50;;;6.73;61.06
15604;BME280;7902;49.042;9.092;2023-03-15T04:25:38;99058.97;;;6.75;60.52
15604;BME280;7902;49.042;9.092;2023-03-15T04:28:04;99061.03;;;6.84;60.62
15604;BME280;7902;49.042;9.092;2023-03-15T04:30:30;99069.25;;;6.78;60.37
15604;BME280;7902;49.042;9.092;2023-03-15T04:32:56;99067.72;;;6.74;60.94
15604;BME280;7902;49.042;9.092;2023-03-15T04:35:30;99080.44;;;6.64;60.58
15604;BME280;7902;49.042;9.092;2023-03-15T04:37:56;99072.59;;;6.64;60.54
15604;BME280;7902;49.042;9.092;2023-03-15T04:40:23;99087.38;;;6.49;61.17
15604;BME280;7902;49.042;9.092;2023-03-15T04:42:51;99082.38;;;6.60;61.07
15604;BME280;7902;49.042;9.092;2023-03-15T04:45:20;99092.47;;;6.67;60.52
15604;BME280;7902;49.042;9.092;2023-03-15T04:47:48;99090.16;;;6.46;60.97
15604;BME280;7902;49.042;9.092;2023-03-15T04:50:14;99084.53;;;6.54;61.04
15604;BME280;7902;49.042;9.092;2023-03-15T04:52:40;99077.34;;;6.57;60.90
15604;BME280;7902;49.042;9.092;2023-03-15T04:55:06;99090.47;;;6.56;60.27
15604;BME280;7902;49.042;9.092;2023-03-15T04:57:32;99087.03;;;6.55;60.93
15604;BME280;7902;49.042;9.092;2023-03-15T04:59:58;99082.66;;;6.56;60.32
15604;BME280;7902;49.042;9.092;2023-03-15T05:02:24;99077.50;;;6.54;60.51
15604;BME280;7902;49.042;9.092;2023-03-15T05:04:50;99081.22;;;6.50;60.76
15604;BME280;7902;49.042;9.092;2023-03-15T05:07:16;99081.34;;;6.49;60.92
15604;BME280;7902;49.042;9.092;2023-03-15T05:09:42;99079.38;;;6.52;60.46
15604;BME280;7902;49.042;9.092;2023-03-15T05:12:11;99079.56;;;6.49;60.96
15604;BME280;7902;49.042;9.092;2023-03-15T05:14:38;99074.41;;;6.64;60.27
15604;BME280;7902;49.042;9.092;2023-03-15T05:17:04;99083.56;;;6.55;60.98
15604;BME280;7902;49.042;9.092;2023-03-15T05:19:30;99075.34;;;6.63;60.12
15604;BME280;7902;49.042;9.092;2023-03-15T05:22:00;99087.03;;;6.55;60.99
15604;BME280;7902;49.042;9.092;2023-03-15T05:24:26;99084.25;;;6.58;60.62
15604;BME280;7902;49.042;9.092;2023-03-15T05:26:52;99088.13;;;6.51;61.17
15604;BME280;7902;49.042;9.092;2023-03-15T05:29:20;99092.16;;;6.57;60.27
15604;BME280;7902;49.042;9.092;2023-03-15T05:31:47;99099.16;;;6.56;60.37
15604;BME280;7902;49.042;9.092;2023-03-15T05:34:14;99102.09;;;6.50;60.16
15604;BME280;7902;49.042;9.092;2023-03-15T05:36:40;99097.63;;;6.37;61.11
15604;BME280;7902;49.042;9.092;2023-03-15T05:39:07;99098.56;;;6.36;60.99
15604;BME280;7902;49.042;9.092;2023-03-15T05:41:33;99103.88;;;6.34;61.37
15604;BME280;7902;49.042;9.092;2023-03-15T05:43:59;99100.75;;;6.43;60.76
15604;BME280;7902;49.042;9.092;2023-03-15T05:46:25;99097.81;;;6.34;61.14
15604;BME280;7902;49.042;9.092;2023-03-15T05:48:51;99098.88;;;6.45;61.23
15604;BME280;7902;49.042;9.092;2023-03-15T05:51:18;99106.91;;;6.42;60.59
15604;BME280;7902;49.042;9.092;2023-03-15T05:53:44;99112.03;;;6.44;60.73
15604;BME280;7902;49.042;9.092;2023-03-15T05:56:10;99112.44;;;6.36;61.39
15604;BME280;7902;49.042;9.092;2023-03-15T05:58:36;99109.50;;;6.42;60.76
15604;BME280;7902;49.042;9.092;2023-03-15T06:01:03;99112.88;;;6.44;60.86
15604;BME280;7902;49.042;9.092;2023-03-15T06:03:30;99115.97;;;6.51;60.64
15604;BME280;7902;49.042;9.092;2023-03-15T06:05:59;99127.59;;;6.45;60.81
15604;BME280;7902;49.042;9.092;2023-03-15T06:08:25;99117.91;;;6.47;60.67
15604;BME280;7902;49.042;9.092;2023-03-15T06:10:51;99122.97;;;6.50;60.88
15604;BME280;7902;49.042;9.092;2023-03-15T06:13:17;99120.41;;;6.65;60.68
15604;BME280;7902;49.042;9.092;2023-03-15T06:15:45;99126.25;;;6.54;60.99
15604;BME280;7902;49.042;9.092;2023-03-15T06:18:12;99127.13;;;6.69;60.62
15604;BME280;7902;49.042;9.092;2023-03-15T06:24:19;99129.34;;;6.60;60.15
15604;BME280;7902;49.042;9.092;2023-03-15T06:26:45;99129.00;;;6.67;60.11
15604;BME280;7902;49.042;9.092;2023-03-15T06:29:11;99129.34;;;6.60;60.27
15604;BME280;7902;49.042;9.092;2023-03-15T06:31:37;99133.06;;;6.56;60.57
15604;BME280;7902;49.042;9.092;2023-03-15T06:34:03;99134.63;;;6.75;59.62
15604;BME280;7902;49.042;9.092;2023-03-15T06:36:29;99129.53;;;6.57;60.41
15604;BME280;7902;49.042;9.092;2023-03-15T06:38:56;99140.28;;;6.67;60.25
15604;BME280;7902;49.042;9.092;2023-03-15T06:41:22;99155.03;;;6.68;59.87
15604;BME280;7902;49.042;9.092;2023-03-15T06:43:48;99152.31;;;6.70;59.77
15604;BME280;7902;49.042;9.092;2023-03-15T06:46:14;99147.28;;;6.82;59.84
15604;BME280;7902;49.042;9.092;2023-03-15T06:48:40;99156.69;;;6.85;59.53
15604;BME280;7902;49.042;9.092;2023-03-15T06:51:06;99150.88;;;6.80;59.82
15604;BME280;7902;49.042;9.092;2023-03-15T06:53:32;99156.16;;;6.78;59.51
15604;BME280;7902;49.042;9.092;2023-03-15T06:55:59;99155.09;;;6.82;59.62
15604;BME280;7902;49.042;9.092;2023-03-15T06:58:25;99153.66;;;6.77;59.57
15604;BME280;7902;49.042;9.092;2023-03-15T07:00:51;99156.69;;;6.85;59.04
15604;BME280;7902;49.042;9.092;2023-03-15T07:03:17;99151.47;;;6.85;59.72
15604;BME280;7902;49.042;9.092;2023-03-15T07:05:43;99157.94;;;6.93;59.14
15604;BME280;7902;49.042;9.092;2023-03-15T07:08:11;99151.28;;;6.88;59.41
15604;BME280;7902;49.042;9.092;2023-03-15T07:10:37;99152.38;;;6.84;59.33
15604;BME280;7902;49.042;9.092;2023-03-15T07:13:02;99148.50;;;6.91;59.28
15604;BME280;7902;49.042;9.092;2023-03-15T07:15:30;99159.56;;;6.80;59.47
15604;BME280;7902;49.042;9.092;2023-03-15T07:17:55;99164.31;;;6.88;58.55
15604;BME280;7902;49.042;9.092;2023-03-15T07:20:21;99159.69;;;6.93;58.66
15604;BME280;7902;49.042;9.092;2023-03-15T07:22:47;99161.31;;;6.95;59.03
15604;BME280;7902;49.042;9.092;2023-03-15T07:25:14;99158.44;;;6.84;58.54
15604;BME280;7902;49.042;9.092;2023-03-15T07:27:40;99162.66;;;6.87;59.10
15604;BME280;7902;49.042;9.092;2023-03-15T07:30:06;99165.69;;;6.95;58.34
15604;BME280;7902;49.042;9.092;2023-03-15T07:32:34;99166.25;;;7.00;58.88
15604;BME280;7902;49.042;9.092;2023-03-15T07:35:00;99167.25;;;7.13;58.22
15604;BME280;7902;49.042;9.092;2023-03-15T07:37:27;99172.72;;;7.09;58.12
15604;BME280;7902;49.042;9.092;2023-03-15T07:39:53;99173.56;;;7.09;58.26
15604;BME280;7902;49.042;9.092;2023-03-15T07:42:20;99174.53;;;7.22;57.97
15604;BME280;7902;49.042;9.092;2023-03-15T07:44:46;99177.41;;;7.18;58.29
15604;BME280;7902;49.042;9.092;2023-03-15T07:47:12;99180.78;;;7.20;58.44
15604;BME280;7902;49.042;9.092;2023-03-15T07:49:38;99181.75;;;7.33;57.77
15604;BME280;7902;49.042;9.092;2023-03-15T07:52:03;99184.41;;;7.47;57.89
15604;BME280;7902;49.042;9.092;2023-03-15T07:54:29;99186.38;;;7.43;58.09
15604;BME280;7902;49.042;9.092;2023-03-15T07:56:56;99182.00;;;7.58;57.95
15604;BME280;7902;49.042;9.092;2023-03-15T07:59:22;99187.75;;;7.49;57.53
15604;BME280;7902;49.042;9.092;2023-03-15T08:01:48;99182.66;;;7.47;58.22
15604;BME280;7902;49.042;9.092;2023-03-15T08:04:14;99194.22;;;7.43;58.43
15604;BME280;7902;49.042;9.092;2023-03-15T08:06:40;99190.47;;;7.47;58.13
15604;BME280;7902;49.042;9.092;2023-03-15T08:09:05;99184.88;;;7.54;57.73
15604;BME280;7902;49.042;9.092;2023-03-15T08:11:32;99187.41;;;7.55;58.54
15604;BME280;7902;49.042;9.092;2023-03-15T08:13:58;99194.97;;;7.60;57.61
15604;BME280;7902;49.042;9.092;2023-03-15T08:16:24;99198.16;;;7.65;57.93
15604;BME280;7902;49.042;9.092;2023-03-15T08:18:50;99196.13;;;7.70;58.05
15604;BME280;7902;49.042;9.092;2023-03-15T08:21:16;99204.53;;;7.75;58.15
15604;BME280;7902;49.042;9.092;2023-03-15T08:23:42;99207.06;;;7.76;57.38
15604;BME280;7902;49.042;9.092;2023-03-15T08:26:07;99206.88;;;7.79;57.32
15604;BME280;7902;49.042;9.092;2023-03-15T08:28:33;99206.78;;;7.81;58.27
15604;BME280;7902;49.042;9.092;2023-03-15T08:30:59;99214.94;;;8.05;57.23
15604;BME280;7902;49.042;9.092;2023-03-15T08:33:25;99220.34;;;8.02;57.25
15604;BME280;7902;49.042;9.092;2023-03-15T08:35:54;99220.63;;;8.11;57.41
15604;BME280;7902;49.042;9.092;2023-03-15T08:38:20;99219.69;;;8.12;57.04
15604;BME280;7902;49.042;9.092;2023-03-15T08:40:46;99222.31;;;8.26;56.35
15604;BME280;7902;49.042;9.092;2023-03-15T08:43:12;99223.84;;;8.30;57.21
15604;BME280;7902;49.042;9.092;2023-03-15T08:45:38;99228.50;;;8.40;56.71
15604;BME280;7902;49.042;9.092;2023-03-15T08:48:04;99224.59;;;8.32;56.53
15604;BME280;7902;49.042;9.092;2023-03-15T08:50:30;99225.31;;;8.49;56.33
15604;BME280;7902;49.042;9.092;2023-03-15T08:52:57;99228.84;;;8.62;56.65
15604;BME280;7902;49.042;9.092;2023-03-15T08:55:23;99229.59;;;8.64;56.46
15604;BME280;7902;49.042;9.092;2023-03-15T08:57:49;99232.16;;;8.51;56.07
15604;BME280;7902;49.042;9.092;2023-03-15T09:00:15;99237.00;;;8.57;56.08
15604;BME280;7902;49.042;9.092;2023-03-15T09:02:46;99234.94;;;8.62;55.94
15604;BME280;7902;49.042;9.092;2023-03-15T09:05:15;99245.31;;;8.64;56.22
15604;BME280;7902;49.042;9.092;2023-03-15T09:07:42;99247.28;;;8.74;55.86
15604;BME280;7902;49.042;9.092;2023-03-15T09:10:09;99251.31;;;8.66;55.85
15604;BME280;7902;49.042;9.092;2023-03-15T09:12:37;99249.63;;;8.65;55.88
15604;BME280;7902;49.042;9.092;2023-03-15T09:15:03;99251.69;;;8.60;55.70
15604;BME280;7902;49.042;9.092;2023-03-15T09:17:29;99251.09;;;8.69;56.02
15604;BME280;7902;49.042;9.092;2023-03-15T09:19:56;99258.59;;;8.61;55.02
15604;BME280;7902;49.042;9.092;2023-03-15T09:22:22;99258.97;;;8.69;54.66
15604;BME280;7902;49.042;9.092;2023-03-15T09:24:48;99260.97;;;8.92;55.12
15604;BME280;7902;49.042;9.092;2023-03-15T09:27:13;99251.09;;;8.83;55.70
15604;BME280;7902;49.042;9.092;2023-03-15T09:29:39;99257.97;;;8.98;55.28
15604;BME280;7902;49.042;9.092;2023-03-15T09:32:05;99255.16;;;9.01;54.73
15604;BME280;7902;49.042;9.092;2023-03-15T09:34:31;99254.84;;;9.06;54.18
15604;BME280;7902;49.042;9.092;2023-03-15T09:36:57;99249.97;;;9.14;54.43
15604;BME280;7902;49.042;9.092;2023-03-15T09:39:23;99246.31;;;9.16;53.93
15604;BME280;7902;49.042;9.092;2023-03-15T09:41:52;99259.97;;;9.21;54.04
15604;BME280;7902;49.042;9.092;2023-03-15T09:44:50;99249.38;;;9.23;53.09
15604;BME280;7902;49.042;9.092;2023-03-15T09:47:50;99250.72;;;9.16;52.87
15604;BME280;7902;49.042;9.092;2023-03-15T09:50:23;99253.41;;;9.14;52.39
15604;BME280;7902;49.042;9.092;2023-03-15T09:52:57;99253.03;;;9.20;51.92
15604;BME280;7902;49.042;9.092;2023-03-15T09:55:26;99261.19;;;9.43;52.83
15604;BME280;7902;49.042;9.092;2023-03-15T10:00:24;99252.38;;;9.44;52.70
15604;BME280;7902;49.042;9.092;2023-03-15T10:02:57;99253.97;;;9.46;52.87
15604;BME280;7902;49.042;9.092;2023-03-15T10:05:32;99252.91;;;9.36;52.14
15604;BME280;7902;49.042;9.092;2023-03-15T10:07:59;99265.50;;;9.44;52.57
15604;BME280;7902;49.042;9.092;2023-03-15T10:10:34;99260.03;;;9.47;52.13
15604;BME280;7902;49.042;9.092;2023-03-15T10:16:26;99267.41;;;9.27;50.76
15604;BME280;7902;49.042;9.092;2023-03-15T10:21:30;99250.91;;;9.40;51.48
15604;BME280;7902;49.042;9.092;2023-03-15T10:23:59;99252.84;;;9.50;51.33
15604;BME280;7902;49.042;9.092;2023-03-15T10:26:31;99255.25;;;9.53;51.58
15604;BME280;7902;49.042;9.092;2023-03-15T10:28:59;99257.97;;;9.52;50.66
15604;BME280;7902;49.042;9.092;2023-03-15T10:31:42;99253.97;;;9.46;51.71
15604;BME280;7902;49.042;9.092;2023-03-15T10:34:09;99261.53;;;9.51;50.99
15604;BME280;7902;49.042;9.092;2023-03-15T10:36:43;99260.09;;;9.59;49.96
15604;BME280;7902;49.042;9.092;2023-03-15T10:39:10;99271.28;;;9.49;51.64
15604;BME280;7902;49.042;9.092;2023-03-15T10:41:42;99268.44;;;9.52;50.82
15604;BME280;7902;49.042;9.092;2023-03-15T10:44:23;99278.53;;;9.58;49.96
15604;BME280;7902;49.042;9.092;2023-03-15T10:47:04;99274.53;;;9.52;50.24
15604;BME280;7902;49.042;9.092;2023-03-15T10:49:39;99290.47;;;9.49;49.94
15604;BME280;7902;49.042;9.092;2023-03-15T10:52:23;99288.16;;;9.45;50.49
15604;BME280;7902;49.042;9.092;2023-03-15T10:54:50;99293.56;;;9.42;51.32
15604;BME280;7902;49.042;9.092;2023-03-15T10:57:18;99280.81;;;9.50;51.47
15604;BME280;7902;49.042;9.092;2023-03-15T11:00:00;99283.22;;;9.53;51.11
15604;BME280;7902;49.042;9.092;2023-03-15T11:02:31;99283.31;;;9.51;51.70
15604;BME280;7902;49.042;9.092;2023-03-15T11:05:17;99281.59;;;9.64;52.08
15604;BME280;7902;49.042;9.092;2023-03-15T11:07:59;99275.38;;;9.53;51.96
15604;BME280;7902;49.042;9.092;2023-03-15T11:10:27;99289.31;;;9.53;52.02
15604;BME280;7902;49.042;9.092;2023-03-15T11:13:18;99291.44;;;9.61;52.75
15604;BME280;7902;49.042;9.092;2023-03-15T11:15:54;99301.59;;;9.53;53.01
15604;BME280;7902;49.042;9.092;2023-03-15T11:18:27;99292.41;;;9.60;53.14
15604;BME280;7902;49.042;9.092;2023-03-15T11:20:55;99288.75;;;9.36;53.61
15604;BME280;7902;49.042;9.092;2023-03-15T11:23:27;99291.75;;;9.30;55.18
15604;BME280;7902;49.042;9.092;2023-03-15T11:25:54;99295.31;;;9.29;55.35
15604;BME280;7902;49.042;9.092;2023-03-15T11:28:25;99294.91;;;9.35;55.42
15604;BME280;7902;49.042;9.092;2023-03-15T11:30:52;99294.63;;;9.12;56.80
15604;BME280;7902;49.042;9.092;2023-03-15T11:33:44;99296.53;;;9.23;56.44
15604;BME280;7902;49.042;9.092;2023-03-15T11:36:18;99297.03;;;9.15;56.42
15604;BME280;7902;49.042;9.092;2023-03-15T11:38:45;99307.44;;;9.03;57.22
15604;BME280;7902;49.042;9.092;2023-03-15T11:41:41;99314.72;;;9.12;57.40
15604;BME280;7902;49.042;9.092;2023-03-15T11:47:25;99306.63;;;8.74;58.27
15604;BME280;7902;49.042;9.092;2023-03-15T11:49:56;99307.47;;;8.74;58.12
15604;BME280;7902;49.042;9.092;2023-03-15T11:52:25;99307.66;;;8.71;58.57
15604;BME280;7902;49.042;9.092;2023-03-15T11:54:55;99312.59;;;8.62;58.62
15604;BME280;7902;49.042;9.092;2023-03-15T11:59:55;99312.31;;;8.52;59.21
15604;BME280;7902;49.042;9.092;2023-03-15T12:09:52;99307.84;;;8.40;60.04
15604;BME280;7902;49.042;9.092;2023-03-15T12:20:18;99311.38;;;8.39;59.88
15604;BME280;7902;49.042;9.092;2023-03-15T12:22:51;99306.28;;;8.38;59.86
15604;BME280;7902;49.042;9.092;2023-03-15T12:25:37;99313.56;;;8.47;59.99
15604;BME280;7902;49.042;9.092;2023-03-15T12:28:07;99310.75;;;8.50;59.85
15604;BME280;7902;49.042;9.092;2023-03-15T12:30:41;99305.44;;;8.51;59.78
15604;BME280;7902;49.042;9.092;2023-03-15T12:33:18;99302.69;;;8.53;60.07
15604;BME280;7902;49.042;9.092;2023-03-15T12:35:45;99304.66;;;8.63;60.14
15604;BME280;7902;49.042;9.092;2023-03-15T12:38:18;99298.88;;;8.72;59.59
15604;BME280;7902;49.042;9.092;2023-03-15T12:40:55;99303.53;;;8.81;60.11
15604;BME280;7902;49.042;9.092;2023-03-15T12:43:41;99305.50;;;8.92;60.15
15604;BME280;7902;49.042;9.092;2023-03-15T12:54:24;99310.03;;;9.44;59.28
15604;BME280;7902;49.042;9.092;2023-03-15T12:57:21;99302.97;;;9.58;59.58
15604;BME280;7902;49.042;9.092;2023-03-15T12:59:51;99306.13;;;9.63;59.86
15604;BME280;7902;49.042;9.092;2023-03-15T13:02:34;99299.13;;;9.64;59.11
15604;BME280;7902;49.042;9.092;2023-03-15T13:05:22;99296.50;;;9.64;59.12
15604;BME280;7902;49.042;9.092;2023-03-15T13:08:06;99304.09;;;9.81;59.85
15604;BME280;7902;49.042;9.092;2023-03-15T13:18:29;99283.69;;;10.62;58.67
15604;BME280;7902;49.042;9.092;2023-03-15T13:23:32;99283.56;;;10.76;57.68
15604;BME280;7902;49.042;9.092;2023-03-15T13:26:34;99277.19;;;10.68;57.24
15604;BME280;7902;49.042;9.092;2023-03-15T13:29:10;99276.41;;;10.78;56.96
15604;BME280;7902;49.042;9.092;2023-03-15T13:31:37;99275.19;;;10.71;56.94
15604;BME280;7902;49.042;9.092;2023-03-15T13:34:20;99276.22;;;10.81;56.69
15604;BME280;7902;49.042;9.092;2023-03-15T13:36:53;99271.03;;;10.92;57.57
15604;BME280;7902;49.042;9.092;2023-03-15T13:39:22;99270.72;;;10.84;55.78
15604;BME280;7902;49.042;9.092;2023-03-15T13:41:55;99269.03;;;10.83;56.37
15604;BME280;7902;49.042;9.092;2023-03-15T13:44:23;99272.78;;;10.68;56.61
15604;BME280;7902;49.042;9.092;2023-03-15T13:46:50;99270.66;;;10.73;56.36
15604;BME280;7902;49.042;9.092;2023-03-15T13:49:17;99275.31;;;10.57;56.49
15604;BME280;7902;49.042;9.092;2023-03-15T13:51:45;99281.59;;;10.67;56.10
15604;BME280;7902;49.042;9.092;2023-03-15T13:54:27;99284.44;;;10.51;56.61
15604;BME280;7902;49.042;9.092;2023-03-15T13:59:22;99282.25;;;10.58;57.18
15604;BME280;7902;49.042;9.092;2023-03-15T14:01:49;99279.81;;;10.42;57.96
15604;BME280;7902;49.042;9.092;2023-03-15T14:04:19;99284.66;;;10.48;57.67
15604;BME280;7902;49.042;9.092;2023-03-15T14:06:47;99287.59;;;10.44;57.70
15604;BME280;7902;49.042;9.092;2023-03-15T14:09:20;99282.03;;;10.48;57.37
15604;BME280;7902;49.042;9.092;2023-03-15T14:11:59;99274.06;;;10.37;57.80
15604;BME280;7902;49.042;9.092;2023-03-15T14:14:28;99278.97;;;10.42;59.55
15604;BME280;7902;49.042;9.092;2023-03-15T14:16:56;99278.16;;;10.54;60.99
15604;BME280;7902;49.042;9.092;2023-03-15T14:19:24;99271.94;;;10.68;57.92
15604;BME280;7902;49.042;9.092;2023-03-15T14:21:54;99269.44;;;10.53;56.70
15604;BME280;7902;49.042;9.092;2023-03-15T14:24:33;99271.75;;;10.58;57.30
15604;BME280;7902;49.042;9.092;2023-03-15T14:27:07;99275.91;;;10.61;58.02
15604;BME280;7902;49.042;9.092;2023-03-15T14:29:35;99261.00;;;10.61;58.42
15604;BME280;7902;49.042;9.092;2023-03-15T14:32:07;99265.66;;;10.94;58.77
15604;BME280;7902;49.042;9.092;2023-03-15T14:34:36;99261.44;;;11.04;57.72